WSSL/XSP METAR and TAF weather

Enter ICAO airport designator
Station Type Date Time Source
WSSL METAR 2024/05/28 22:00 UTC NOAA

WSSL 282200Z VRB01KT 8000 FEW016 BKN150 28/26 Q1007


Station Type Date Time Source
WSSL Decoded METAR 2024/05/28 22:00 UTC NOAA

Station name not available
May 28, 2024 - 06:00 PM EDT / 2024.05.28 2200 UTC
Wind: Variable at 1 MPH (1 KT):0
Visibility: 4 mile(s):0
Sky conditions: mostly cloudy
Temperature: 82 F (28 C)
Dew Point: 78 F (26 C)
Relative Humidity: 88%
Pressure (altimeter): 29.74 in. Hg (1007 hPa)
ob: WSSL 282200Z VRB01KT 8000 FEW016 BKN150 28/26 Q1007
cycle: 22

Station Type Date Time Source
WSSL TAF 2024/05/28 18:00 UTC NOAA